createdAt,value
2022-12-15T00:00:02.878Z,96217.28
2022-12-15T00:02:50.484Z,96233.47
2022-12-15T00:05:36.527Z,96253.50
2022-12-15T00:08:28.202Z,96256.03
2022-12-15T00:11:14.900Z,96264.69
2022-12-15T00:14:00.615Z,96261.19
2022-12-15T00:16:46.123Z,96254.84
2022-12-15T00:19:31.374Z,96252.22
2022-12-15T00:22:16.856Z,96267.91
2022-12-15T00:25:03.900Z,96262.75
2022-12-15T00:27:49.121Z,96274.81
2022-12-15T00:30:35.136Z,96271.22
2022-12-15T00:33:26.531Z,96266.00
2022-12-15T00:36:12.281Z,96269.41
2022-12-15T00:38:44.373Z,96281.47
2022-12-15T00:41:15.363Z,96272.00
2022-12-15T00:43:43.752Z,96268.59
2022-12-15T00:46:29.600Z,96300.09
2022-12-15T00:48:58.099Z,96305.78
2022-12-15T00:51:43.871Z,96298.00
2022-12-15T00:54:29.809Z,96284.50
2022-12-15T00:57:16.752Z,96285.41
2022-12-15T01:00:02.045Z,96310.69
2022-12-15T01:02:47.686Z,96316.81
2022-12-15T01:05:33.100Z,96321.91
2022-12-15T01:08:19.308Z,96314.19
2022-12-15T01:11:04.666Z,96316.91
2022-12-15T01:13:51.619Z,96339.34
2022-12-15T01:16:37.352Z,96337.53
2022-12-15T01:19:23.012Z,96357.19
2022-12-15T01:21:51.160Z,96353.88
2022-12-15T01:24:19.334Z,96349.41
2022-12-15T01:26:47.518Z,96341.53
2022-12-15T01:29:17.331Z,96355.22
2022-12-15T01:31:49.760Z,96362.16
2022-12-15T01:34:20.206Z,96364.81
2022-12-15T01:36:48.518Z,96369.00
2022-12-15T01:39:16.961Z,96364.75
2022-12-15T01:41:44.158Z,96357.75
2022-12-15T01:44:23.891Z,96358.59
2022-12-15T01:46:56.430Z,96367.19
2022-12-15T01:49:28.560Z,96359.44
2022-12-15T01:52:00.105Z,96371.31
2022-12-15T01:54:32.059Z,96372.94
2022-12-15T01:57:04.254Z,96388.44
2022-12-15T01:59:37.149Z,96386.63
2022-12-15T02:02:05.410Z,96372.69
2022-12-15T02:04:34.928Z,96372.59
2022-12-15T02:07:03.027Z,96368.53
2022-12-15T02:09:32.019Z,96390.66
2022-12-15T02:12:07.962Z,96385.59
2022-12-15T02:14:54.960Z,96377.84
2022-12-15T02:17:34.281Z,96364.94
2022-12-15T02:20:34.847Z,96357.28
2022-12-15T02:23:37.479Z,96364.09
2022-12-15T02:26:33.872Z,96398.41
2022-12-15T02:29:19.277Z,96401.84
2022-12-15T02:31:54.058Z,96402.63
2022-12-15T02:34:32.016Z,96394.97
2022-12-15T02:37:07.355Z,96415.47
2022-12-15T02:39:35.453Z,96430.91
2022-12-15T02:42:03.757Z,96428.38
2022-12-15T02:44:36.610Z,96421.66
2022-12-15T02:47:22.158Z,96434.38
2022-12-15T02:50:10.898Z,96430.06
2022-12-15T02:52:50.010Z,96437.63
2022-12-15T02:55:24.914Z,96423.19
2022-12-15T02:58:00.707Z,96449.81
2022-12-15T03:00:32.021Z,96451.53
2022-12-15T03:03:02.050Z,96446.34
2022-12-15T03:05:33.134Z,96451.50
2022-12-15T03:08:01.410Z,96450.59
2022-12-15T03:10:29.782Z,96447.19
2022-12-15T03:12:58.993Z,96433.84
2022-12-15T03:15:31.789Z,96432.16
2022-12-15T03:18:05.036Z,96435.06
2022-12-15T03:20:33.392Z,96453.13
2022-12-15T03:23:01.977Z,96461.06
2022-12-15T03:25:30.512Z,96468.19
2022-12-15T03:27:58.654Z,96487.28
2022-12-15T03:30:26.792Z,96492.47
2022-12-15T03:32:55.011Z,96468.34
2022-12-15T03:35:24.576Z,96476.94
2022-12-15T03:37:52.859Z,96460.75
2022-12-15T03:40:21.097Z,96480.34
2022-12-15T03:42:49.390Z,96482.06
2022-12-15T03:45:18.356Z,96475.34
2022-12-15T03:47:47.128Z,96476.16
2022-12-15T03:50:17.312Z,96487.06
2022-12-15T03:52:47.174Z,96478.41
2022-12-15T03:55:16.224Z,96467.50
2022-12-15T03:57:44.374Z,96474.13
2022-12-15T04:00:15.046Z,96474.91
2022-12-15T04:02:43.451Z,96456.81
2022-12-15T04:05:16.250Z,96463.97
2022-12-15T04:07:44.379Z,96452.06
2022-12-15T04:10:14.081Z,96453.88
2022-12-15T04:12:42.518Z,96433.19
2022-12-15T04:15:12.282Z,96454.56
2022-12-15T04:17:40.649Z,96445.84
2022-12-15T04:20:13.099Z,96443.28
2022-12-15T04:22:43.794Z,96441.59
2022-12-15T04:25:33.766Z,96424.56
2022-12-15T04:28:19.719Z,96432.06
2022-12-15T04:31:10.384Z,96415.94
2022-12-15T04:33:58.276Z,96427.06
2022-12-15T04:36:44.651Z,96456.19
2022-12-15T04:39:30.398Z,96444.38
2022-12-15T04:42:19.640Z,96470.44
2022-12-15T04:45:06.503Z,96470.47
2022-12-15T04:47:51.860Z,96467.97
2022-12-15T04:50:37.766Z,96472.41
2022-12-15T04:53:27.844Z,96469.88
2022-12-15T04:56:18.499Z,96447.84
2022-12-15T04:59:06.727Z,96472.81
2022-12-15T05:01:53.127Z,96478.94
2022-12-15T05:04:38.677Z,96476.28
2022-12-15T05:07:24.571Z,96461.09
2022-12-15T05:10:14.940Z,96472.22
2022-12-15T05:13:01.251Z,96467.16
2022-12-15T05:15:48.841Z,96460.59
2022-12-15T05:18:34.821Z,96472.63
2022-12-15T05:21:20.161Z,96460.19
2022-12-15T05:24:05.593Z,96478.22
2022-12-15T05:26:53.214Z,96485.16
2022-12-15T05:29:39.289Z,96483.50
2022-12-15T05:32:09.648Z,96488.78
2022-12-15T05:34:38.726Z,96495.78
2022-12-15T05:37:07.850Z,96501.25
2022-12-15T05:39:36.881Z,96514.25
2022-12-15T05:42:05.351Z,96511.56
2022-12-15T05:44:33.536Z,96512.47
2022-12-15T05:47:01.654Z,96498.16
2022-12-15T05:49:31.084Z,96506.66
2022-12-15T05:51:59.155Z,96500.59
2022-12-15T05:54:27.236Z,96511.88
2022-12-15T05:56:55.422Z,96508.66
2022-12-15T05:59:23.590Z,96503.53
2022-12-15T06:01:51.738Z,96506.06
2022-12-15T06:04:20.067Z,96520.84
2022-12-15T06:06:49.592Z,96523.44
2022-12-15T06:09:17.647Z,96522.78
2022-12-15T06:11:46.051Z,96536.59
2022-12-15T06:14:14.252Z,96543.59
2022-12-15T06:16:50.211Z,96534.09
2022-12-15T06:19:19.692Z,96543.59
2022-12-15T06:21:49.282Z,96543.63
2022-12-15T06:24:17.891Z,96543.94
2022-12-15T06:26:46.112Z,96563.63
2022-12-15T06:29:18.515Z,96567.06
2022-12-15T06:31:47.152Z,96581.66
2022-12-15T06:34:20.428Z,96582.56
2022-12-15T06:36:52.928Z,96575.75
2022-12-15T06:39:21.692Z,96571.41
2022-12-15T06:41:50.310Z,96592.97
2022-12-15T06:44:18.424Z,96593.94
2022-12-15T06:46:46.879Z,96598.28
2022-12-15T06:49:15.662Z,96600.81
2022-12-15T06:51:45.230Z,96624.97
2022-12-15T06:54:14.805Z,96623.09
2022-12-15T06:56:43.762Z,96623.81
2022-12-15T06:59:12.849Z,96634.13
2022-12-15T07:01:41.932Z,96635.06
2022-12-15T07:04:11.598Z,96622.25
2022-12-15T07:06:40.925Z,96629.81
2022-12-15T07:09:13.237Z,96655.25
2022-12-15T07:11:43.061Z,96651.56
2022-12-15T07:14:11.731Z,96646.19
2022-12-15T07:16:41.421Z,96661.09
2022-12-15T07:19:12.996Z,96672.88
2022-12-15T07:21:42.649Z,96676.13
2022-12-15T07:24:12.519Z,96666.63
2022-12-15T07:26:42.994Z,96680.97
2022-12-15T07:29:12.089Z,96668.63
2022-12-15T07:31:40.619Z,96661.66
2022-12-15T07:34:08.998Z,96666.56
2022-12-15T07:36:37.270Z,96660.09
2022-12-15T07:39:06.214Z,96688.97
2022-12-15T07:41:36.962Z,96674.53
2022-12-15T07:44:06.648Z,96698.22
2022-12-15T07:46:35.383Z,96687.16
2022-12-15T07:49:03.660Z,96692.41
2022-12-15T07:51:31.875Z,96678.41
2022-12-15T07:54:00.306Z,96702.03
2022-12-15T07:56:28.494Z,96707.19
2022-12-15T07:58:56.666Z,96720.75
2022-12-15T08:01:27.378Z,96714.78
2022-12-15T08:03:55.649Z,96720.78
2022-12-15T08:06:23.889Z,96716.00
2022-12-15T08:08:52.276Z,96726.97
2022-12-15T08:11:23.119Z,96718.66
2022-12-15T08:14:15.034Z,96709.09
2022-12-15T08:16:42.631Z,96704.53
2022-12-15T08:19:13.355Z,96705.09
2022-12-15T08:21:42.711Z,96708.59
2022-12-15T08:24:11.638Z,96705.19
2022-12-15T08:26:41.560Z,96711.41
2022-12-15T08:32:03.273Z,96731.84
2022-12-15T08:34:34.095Z,96745.06
2022-12-15T08:37:02.579Z,96751.69
2022-12-15T08:39:31.479Z,96745.63
2022-12-15T08:41:59.773Z,96744.63
2022-12-15T08:44:27.948Z,96758.31
2022-12-15T08:46:56.279Z,96747.16
2022-12-15T08:49:26.146Z,96734.97
2022-12-15T08:51:54.321Z,96731.44
2022-12-15T08:54:22.511Z,96719.34
2022-12-15T08:56:51.000Z,96729.78
2022-12-15T08:59:19.637Z,96713.09
2022-12-15T09:01:48.425Z,96705.50
2022-12-15T09:04:16.896Z,96711.81
2022-12-15T09:06:50.911Z,96691.66
2022-12-15T09:09:19.531Z,96704.19
2022-12-15T09:11:47.961Z,96711.06
2022-12-15T09:14:16.689Z,96722.38
2022-12-15T09:16:45.242Z,96739.34
2022-12-15T09:19:13.465Z,96744.16
2022-12-15T09:21:44.967Z,96753.38
2022-12-15T09:24:23.220Z,96739.13
2022-12-15T09:26:54.624Z,96757.88
2022-12-15T09:29:22.895Z,96751.69
2022-12-15T09:31:51.250Z,96760.84
2022-12-15T09:34:19.775Z,96747.28
2022-12-15T09:36:48.038Z,96762.75
2022-12-15T09:39:17.860Z,96769.81
2022-12-15T09:41:53.810Z,96758.00
2022-12-15T09:44:23.978Z,96768.06
2022-12-15T09:47:05.862Z,96767.06
2022-12-15T09:49:56.491Z,96764.13
2022-12-15T09:52:29.233Z,96769.88
2022-12-15T09:55:01.895Z,96764.34
2022-12-15T09:57:38.696Z,96749.50
2022-12-15T10:00:21.752Z,96746.94
2022-12-15T10:03:25.593Z,96741.06
2022-12-15T10:06:15.912Z,96750.97
2022-12-15T10:08:50.720Z,96745.81
2022-12-15T10:11:26.619Z,96744.06
2022-12-15T10:14:02.499Z,96765.88
2022-12-15T10:16:36.407Z,96747.47
2022-12-15T10:19:13.686Z,96748.63
2022-12-15T10:21:42.660Z,96762.03
2022-12-15T10:24:37.490Z,96761.25
2022-12-15T10:27:19.910Z,96767.38
2022-12-15T10:30:01.665Z,96771.88
2022-12-15T10:32:43.053Z,96761.00
2022-12-15T10:35:17.277Z,96759.72
2022-12-15T10:37:45.503Z,96779.38
2022-12-15T10:40:18.917Z,96775.00
2022-12-15T10:42:51.010Z,96774.06
2022-12-15T10:45:35.690Z,96778.78
2022-12-15T10:48:06.649Z,96785.50
2022-12-15T10:50:35.674Z,96794.56
2022-12-15T10:53:10.139Z,96790.31
2022-12-15T10:55:40.324Z,96769.91
2022-12-15T10:58:19.322Z,96789.25
2022-12-15T11:00:50.838Z,96766.94
2022-12-15T11:03:25.075Z,96745.97
2022-12-15T11:05:54.501Z,96765.81
2022-12-15T11:08:24.462Z,96755.38
2022-12-15T11:11:12.444Z,96752.41
2022-12-15T11:13:43.639Z,96735.97
2022-12-15T11:16:16.564Z,96745.97
2022-12-15T11:18:49.147Z,96758.63
2022-12-15T11:21:23.422Z,96754.22
2022-12-15T11:24:05.287Z,96757.78
2022-12-15T11:26:45.142Z,96750.53
2022-12-15T11:29:25.821Z,96741.19
2022-12-15T11:31:55.378Z,96740.38
2022-12-15T11:34:26.926Z,96722.00
2022-12-15T11:37:21.391Z,96731.03
2022-12-15T11:40:07.529Z,96702.81
2022-12-15T11:42:48.933Z,96689.91
2022-12-15T11:45:25.678Z,96700.06
2022-12-15T11:48:01.929Z,96696.44
2022-12-15T11:50:33.505Z,96694.31
2022-12-15T11:53:18.699Z,96701.28
2022-12-15T11:55:54.530Z,96691.38
2022-12-15T11:58:55.085Z,96689.00
2022-12-15T12:01:52.664Z,96701.25
2022-12-15T12:04:28.170Z,96699.00
2022-12-15T12:07:08.198Z,96703.63
2022-12-15T12:09:38.457Z,96711.72
2022-12-15T12:12:16.596Z,96718.56
2022-12-15T12:14:54.560Z,96716.63
2022-12-15T12:17:36.229Z,96715.16
2022-12-15T12:20:15.226Z,96718.16
2022-12-15T12:22:51.918Z,96714.97
2022-12-15T12:25:23.313Z,96721.88
2022-12-15T12:27:56.597Z,96717.78
2022-12-15T12:30:28.129Z,96729.00
2022-12-15T12:33:05.118Z,96712.38
2022-12-15T12:35:39.950Z,96712.38
2022-12-15T12:38:11.022Z,96712.56
2022-12-15T12:40:56.599Z,96715.56
2022-12-15T12:43:34.953Z,96703.41
2022-12-15T12:46:10.249Z,96697.75
2022-12-15T12:48:48.525Z,96696.31
2022-12-15T12:51:28.456Z,96694.38
2022-12-15T12:53:57.966Z,96680.72
2022-12-15T12:56:36.966Z,96672.47
2022-12-15T12:59:08.921Z,96684.94
2022-12-15T13:01:39.002Z,96683.25
2022-12-15T13:04:11.945Z,96676.56
2022-12-15T13:07:01.136Z,96676.06
2022-12-15T13:09:43.454Z,96673.38
2022-12-15T13:12:53.708Z,96686.09
2022-12-15T13:15:39.425Z,96690.69
2022-12-15T13:18:13.693Z,96709.69
2022-12-15T13:20:44.319Z,96708.72
2022-12-15T13:23:37.489Z,96728.88
2022-12-15T13:26:24.168Z,96745.84
2022-12-15T13:28:53.373Z,96762.41
2022-12-15T13:31:33.593Z,96757.38
2022-12-15T13:34:27.560Z,96717.88
2022-12-15T13:37:01.753Z,96730.97
2022-12-15T13:39:58.716Z,96753.03
2022-12-15T13:42:56.157Z,96720.91
2022-12-15T13:45:36.000Z,96705.31
2022-12-15T13:48:14.803Z,96696.69
2022-12-15T13:50:51.388Z,96718.19
2022-12-15T13:53:43.801Z,96710.69
2022-12-15T13:56:37.300Z,96717.63
2022-12-15T13:59:14.267Z,96714.66
2022-12-15T14:01:51.342Z,96730.53
2022-12-15T14:04:21.486Z,96719.16
2022-12-15T14:06:51.874Z,96716.88
2022-12-15T14:09:27.490Z,96717.81
2022-12-15T14:11:56.155Z,96718.06
2022-12-15T14:14:26.938Z,96739.00
2022-12-15T14:17:01.840Z,96741.88
2022-12-15T14:19:39.741Z,96748.94
2022-12-15T14:22:27.498Z,96746.41
2022-12-15T14:25:03.616Z,96753.06
2022-12-15T14:27:34.071Z,96732.50
2022-12-15T14:30:22.880Z,96746.47
2022-12-15T14:32:55.019Z,96744.84
2022-12-15T14:35:29.826Z,96749.34
2022-12-15T14:38:01.839Z,96746.16
2022-12-15T14:40:31.829Z,96743.59
2022-12-15T14:43:00.390Z,96734.19
2022-12-15T14:45:31.814Z,96724.66
2022-12-15T14:48:39.428Z,96721.56
2022-12-15T14:50:51.794Z,96730.25
2022-12-15T14:53:22.692Z,96706.72
2022-12-15T14:55:52.413Z,96718.28
2022-12-15T14:58:31.242Z,96736.00
2022-12-15T15:01:00.225Z,96716.22
2022-12-15T15:03:37.412Z,96703.19
2022-12-15T15:06:17.352Z,96709.31
2022-12-15T15:08:49.190Z,96713.69
2022-12-15T15:11:29.597Z,96723.41
2022-12-15T15:14:01.886Z,96715.97
2022-12-15T15:16:30.543Z,96720.25
2022-12-15T15:19:02.567Z,96709.44
2022-12-15T15:21:35.180Z,96724.91
2022-12-15T15:24:05.749Z,96725.72
2022-12-15T15:26:35.556Z,96714.91
2022-12-15T15:29:04.055Z,96729.38
2022-12-15T15:31:41.376Z,96728.25
2022-12-15T15:34:11.610Z,96730.91
2022-12-15T15:36:40.993Z,96721.03
2022-12-15T15:39:15.544Z,96723.06
2022-12-15T15:41:45.259Z,96725.69
2022-12-15T15:44:15.717Z,96717.91
2022-12-15T15:46:48.180Z,96722.28
2022-12-15T15:49:20.739Z,96707.19
2022-12-15T15:51:49.179Z,96724.44
2022-12-15T15:54:21.965Z,96718.00
2022-12-15T15:56:52.136Z,96732.59
2022-12-15T15:59:22.604Z,96738.50
2022-12-15T16:01:54.859Z,96737.63
2022-12-15T16:04:23.568Z,96726.59
2022-12-15T16:06:52.385Z,96737.81
2022-12-15T16:09:21.116Z,96733.16
2022-12-15T16:11:49.488Z,96708.56
2022-12-15T16:14:19.558Z,96729.31
2022-12-15T16:16:47.909Z,96724.22
2022-12-15T16:19:16.141Z,96723.22
2022-12-15T16:21:44.533Z,96731.06
2022-12-15T16:24:17.188Z,96728.28
2022-12-15T16:26:49.141Z,96712.06
2022-12-15T16:29:21.128Z,96714.59
2022-12-15T16:31:49.648Z,96726.38
2022-12-15T16:34:19.400Z,96734.31
2022-12-15T16:36:48.145Z,96738.50
2022-12-15T16:39:26.444Z,96740.94
2022-12-15T16:41:57.283Z,96740.09
2022-12-15T16:44:29.634Z,96729.44
2022-12-15T16:46:59.426Z,96728.75
2022-12-15T16:49:33.916Z,96748.59
2022-12-15T16:52:06.589Z,96757.88
2022-12-15T16:54:34.846Z,96770.69
2022-12-15T16:57:04.097Z,96760.72
2022-12-15T16:59:35.265Z,96771.53
2022-12-15T17:02:18.654Z,96768.88
2022-12-15T17:04:47.366Z,96770.69
2022-12-15T17:07:20.455Z,96764.56
2022-12-15T17:09:50.394Z,96754.97
2022-12-15T17:12:19.717Z,96754.84
2022-12-15T17:14:49.642Z,96755.72
2022-12-15T17:17:19.785Z,96749.72
2022-12-15T17:22:38.266Z,96750.53
2022-12-15T17:25:11.293Z,96732.84
2022-12-15T17:27:40.187Z,96747.91
2022-12-15T17:30:15.934Z,96749.81
2022-12-15T17:32:44.819Z,96758.34
2022-12-15T17:35:13.680Z,96750.22
2022-12-15T17:37:43.376Z,96746.19
2022-12-15T17:40:21.311Z,96739.19
2022-12-15T17:42:51.974Z,96708.31
2022-12-15T17:45:25.203Z,96735.78
2022-12-15T17:47:54.437Z,96726.53
2022-12-15T17:50:22.979Z,96742.69
2022-12-15T17:52:51.728Z,96726.28
2022-12-15T17:55:23.567Z,96749.53
2022-12-15T17:57:53.734Z,96727.28
2022-12-15T18:00:27.711Z,96759.91
2022-12-15T18:02:57.687Z,96762.53
2022-12-15T18:05:30.137Z,96747.28
2022-12-15T18:08:01.957Z,96760.75
2022-12-15T18:10:33.996Z,96755.69
2022-12-15T18:13:03.794Z,96757.34
2022-12-15T18:15:34.819Z,96745.31
2022-12-15T18:18:03.895Z,96750.31
2022-12-15T18:20:35.829Z,96745.13
2022-12-15T18:23:04.334Z,96749.47
2022-12-15T18:25:32.877Z,96732.00
2022-12-15T18:28:02.121Z,96723.63
2022-12-15T18:30:31.094Z,96746.75
2022-12-15T18:33:01.039Z,96732.66
2022-12-15T18:35:34.456Z,96725.34
2022-12-15T18:38:02.594Z,96724.66
2022-12-15T18:40:31.904Z,96724.66
2022-12-15T18:43:00.493Z,96725.44
2022-12-15T18:45:29.357Z,96710.88
2022-12-15T18:47:58.254Z,96719.66
2022-12-15T18:50:28.706Z,96703.41
2022-12-15T18:53:00.881Z,96708.31
2022-12-15T18:55:32.480Z,96707.56
2022-12-15T18:58:01.906Z,96703.09
2022-12-15T19:00:32.699Z,96716.63
2022-12-15T19:03:02.324Z,96707.16
2022-12-15T19:05:34.211Z,96703.59
2022-12-15T19:08:10.257Z,96702.69
2022-12-15T19:10:44.045Z,96681.50
2022-12-15T19:13:15.533Z,96691.56
2022-12-15T19:15:44.870Z,96689.75
2022-12-15T19:18:33.734Z,96684.66
2022-12-15T19:21:44.408Z,96696.00
2022-12-15T19:24:15.057Z,96669.34
2022-12-15T19:26:44.271Z,96660.63
2022-12-15T19:29:23.980Z,96662.44
2022-12-15T19:31:53.858Z,96669.22
2022-12-15T19:34:23.532Z,96678.81
2022-12-15T19:36:54.568Z,96654.72
2022-12-15T19:39:26.145Z,96662.25
2022-12-15T19:41:56.088Z,96670.16
2022-12-15T19:44:26.452Z,96660.84
2022-12-15T19:46:55.402Z,96655.53
2022-12-15T19:49:24.654Z,96657.34
2022-12-15T19:51:56.654Z,96652.00
2022-12-15T19:54:26.494Z,96639.78
2022-12-15T19:56:55.792Z,96637.09
2022-12-15T19:59:29.265Z,96634.66
2022-12-15T20:01:58.672Z,96638.13
2022-12-15T20:04:28.215Z,96634.56
2022-12-15T20:06:59.272Z,96630.97
2022-12-15T20:09:28.785Z,96617.31
2022-12-15T20:11:58.324Z,96628.44
2022-12-15T20:14:28.231Z,96624.69
2022-12-15T20:16:56.891Z,96623.88
2022-12-15T20:19:26.301Z,96608.50
2022-12-15T20:21:55.493Z,96623.94
2022-12-15T20:24:28.931Z,96625.47
2022-12-15T20:26:57.637Z,96612.66
2022-12-15T20:29:28.858Z,96620.25
2022-12-15T20:31:59.652Z,96626.38
2022-12-15T20:34:33.890Z,96625.22
2022-12-15T20:37:02.485Z,96599.63
2022-12-15T20:39:33.411Z,96602.97
2022-12-15T20:42:05.223Z,96607.09
2022-12-15T20:44:34.309Z,96605.09
2022-12-15T20:47:03.908Z,96596.13
2022-12-15T20:49:32.729Z,96595.22
2022-12-15T20:52:01.503Z,96608.75
2022-12-15T20:54:31.765Z,96592.25
2022-12-15T20:57:00.284Z,96604.13
2022-12-15T20:59:28.821Z,96597.06
2022-12-15T21:02:06.809Z,96578.91
2022-12-15T21:04:36.612Z,96597.63
2022-12-15T21:07:07.113Z,96591.41
2022-12-15T21:09:37.426Z,96587.25
2022-12-15T21:12:14.432Z,96563.25
2022-12-15T21:14:42.823Z,96580.22
2022-12-15T21:17:15.402Z,96576.81
2022-12-15T21:19:44.301Z,96585.44
2022-12-15T21:22:20.135Z,96583.69
2022-12-15T21:24:52.482Z,96571.75
2022-12-15T21:27:22.174Z,96571.38
2022-12-15T21:29:52.579Z,96583.69
2022-12-15T21:32:21.599Z,96576.81
2022-12-15T21:34:51.783Z,96580.38
2022-12-15T21:37:26.177Z,96588.84
2022-12-15T21:39:56.253Z,96563.13
2022-12-15T21:42:24.964Z,96560.53
2022-12-15T21:44:53.263Z,96573.56
2022-12-15T21:47:47.297Z,96589.09
2022-12-15T21:50:14.824Z,96601.53
2022-12-15T21:52:43.260Z,96587.63
2022-12-15T21:55:18.170Z,96578.22
2022-12-15T21:57:46.658Z,96579.13
2022-12-15T22:00:17.544Z,96579.81
2022-12-15T22:02:46.838Z,96583.28
2022-12-15T22:05:18.516Z,96570.16
2022-12-15T22:07:46.716Z,96573.56
2022-12-15T22:10:16.579Z,96566.78
2022-12-15T22:12:49.200Z,96559.84
2022-12-15T22:15:19.924Z,96565.19
2022-12-15T22:17:48.345Z,96550.75
2022-12-15T22:20:18.616Z,96568.59
2022-12-15T22:22:47.175Z,96566.78
2022-12-15T22:25:22.190Z,96531.84
2022-12-15T22:27:51.735Z,96523.91
2022-12-15T22:30:21.893Z,96532.28
2022-12-15T22:32:50.296Z,96493.50
2022-12-15T22:35:20.764Z,96500.25
2022-12-15T22:37:49.770Z,96491.00
2022-12-15T22:40:19.455Z,96496.22
2022-12-15T22:42:51.935Z,96489.94
2022-12-15T22:45:24.093Z,96498.41
2022-12-15T22:47:55.085Z,96477.84
2022-12-15T22:50:25.061Z,96475.91
2022-12-15T22:52:55.077Z,96473.28
2022-12-15T22:55:25.629Z,96450.63
2022-12-15T22:57:58.111Z,96438.56
2022-12-15T23:00:26.322Z,96417.91
2022-12-15T23:02:54.794Z,96428.00
2022-12-15T23:05:23.286Z,96420.31
2022-12-15T23:07:51.673Z,96414.13
2022-12-15T23:10:38.647Z,96410.09
2022-12-15T23:13:08.076Z,96406.47
2022-12-15T23:15:54.748Z,96402.19
2022-12-15T23:18:22.956Z,96394.44
2022-12-15T23:20:51.726Z,96403.28
2022-12-15T23:23:19.981Z,96406.94
2022-12-15T23:25:48.173Z,96413.84
2022-12-15T23:28:17.812Z,96417.59
2022-12-15T23:30:49.952Z,96417.44
2022-12-15T23:33:18.408Z,96418.56
2022-12-15T23:35:46.941Z,96422.91
2022-12-15T23:38:15.932Z,96420.97
2022-12-15T23:40:52.557Z,96404.59
2022-12-15T23:43:23.621Z,96402.53
2022-12-15T23:45:58.344Z,96403.13
2022-12-15T23:48:29.995Z,96408.59
2022-12-15T23:51:04.772Z,96396.25
2022-12-15T23:53:34.291Z,96414.56
2022-12-15T23:56:11.472Z,96416.59
2022-12-15T23:58:42.752Z,96409.16
